Time;durP1;ratioP1;P1;durP2;ratioP2;P2;SDS_P1;SDS_P2;PMS_P1;PMS_P2;Temp;Humidity;BMP_temperature;BMP_pressure;BME280_temperature;BME280_humidity;BME280_pressure;Samples;Min_cycle;Max_cycle;Signal;HPM_P1;HPM_P2
2022/04/03 00:01:13;;;;;;;6.37;5.77;;;0.90;99.90;;;;;;5035141;28;20250;-65
2022/04/03 00:03:38;;;;;;;5.93;5.37;;;0.90;99.90;;;;;;5036500;28;20864;-65
2022/04/03 00:06:04;;;;;;;7.67;5.60;;;0.90;99.90;;;;;;5036464;28;20183;-62
2022/04/03 00:08:31;;;;;;;6.23;5.67;;;0.80;99.90;;;;;;5035805;28;20172;-67
2022/04/03 00:10:57;;;;;;;7.83;7.07;;;0.80;99.90;;;;;;5036390;28;20164;-66
2022/04/03 00:13:23;;;;;;;10.53;6.40;;;0.80;99.90;;;;;;5036163;28;20422;-62
2022/04/03 00:15:48;;;;;;;5.57;5.07;;;0.70;99.90;;;;;;5036317;28;20764;-63
2022/04/03 00:18:14;;;;;;;7.33;6.10;;;0.70;99.90;;;;;;5036255;28;20425;-66
2022/04/03 00:20:41;;;;;;;6.90;6.17;;;0.70;99.90;;;;;;5035535;28;20863;-62
2022/04/03 00:23:08;;;;;;;7.40;6.60;;;0.70;99.90;;;;;;5036014;28;20448;-62
2022/04/03 00:25:34;;;;;;;6.25;5.35;;;0.70;99.90;;;;;;5035977;28;20244;-65
2022/04/03 00:28:00;;;;;;;7.82;6.05;;;0.70;99.90;;;;;;5036106;28;20164;-66
2022/04/03 00:30:26;;;;;;;6.83;6.03;;;0.70;99.90;;;;;;5034346;28;20172;-66
2022/04/03 00:32:52;;;;;;;5.78;5.18;;;0.70;99.90;;;;;;5035997;28;20922;-65
2022/04/03 00:35:20;;;;;;;6.60;6.03;;;0.70;99.90;;;;;;5035750;28;20270;-62
2022/04/03 00:37:46;;;;;;;7.05;6.07;;;0.60;99.90;;;;;;5035261;28;20199;-62
2022/04/03 00:40:12;;;;;;;6.38;5.68;;;0.60;99.90;;;;;;5035364;28;20195;-62
2022/04/03 00:42:39;;;;;;;5.75;5.28;;;0.60;99.90;;;;;;5036039;28;20195;-62
2022/04/03 00:45:06;;;;;;;7.40;5.32;;;0.60;99.90;;;;;;5035783;28;20195;-63
2022/04/03 00:47:32;;;;;;;5.55;5.07;;;0.50;99.90;;;;;;5035741;28;20199;-62
2022/04/03 00:49:59;;;;;;;6.40;5.80;;;0.50;99.90;;;;;;5034209;28;20186;-62
2022/04/03 00:52:25;;;;;;;8.20;5.03;;;0.50;99.90;;;;;;5035748;28;20188;-65
2022/04/03 00:54:51;;;;;;;5.03;4.57;;;0.40;99.90;;;;;;5035777;28;20171;-62
2022/04/03 00:57:20;;;;;;;5.53;4.77;;;0.50;99.90;;;;;;5035766;28;20171;-66
2022/04/03 00:59:47;;;;;;;5.28;4.80;;;0.50;99.90;;;;;;5034959;28;20653;-62
2022/04/03 01:02:12;;;;;;;8.32;5.10;;;0.50;99.90;;;;;;5035490;28;20192;-62
2022/04/03 01:04:40;;;;;;;7.23;4.70;;;0.40;99.90;;;;;;5035721;28;20739;-62
2022/04/03 01:07:06;;;;;;;8.77;6.20;;;0.50;99.90;;;;;;5035495;28;20575;-62
2022/04/03 01:09:32;;;;;;;7.68;5.20;;;0.50;99.90;;;;;;5034615;28;20176;-63
2022/04/03 01:11:58;;;;;;;5.37;4.90;;;0.50;99.90;;;;;;5035566;28;20188;-65
2022/04/03 01:14:37;;;;;;;34.07;7.03;;;0.50;99.90;;;;;;5035415;28;20241;-62
2022/04/03 01:17:04;;;;;;;7.80;5.80;;;0.50;99.90;;;;;;5035437;28;20175;-62
2022/04/03 01:19:30;;;;;;;6.32;5.22;;;0.50;99.90;;;;;;5034468;28;20402;-66
2022/04/03 01:21:56;;;;;;;5.73;5.13;;;0.50;99.90;;;;;;5035147;28;20318;-66
2022/04/03 01:24:23;;;;;;;5.55;5.15;;;0.40;99.90;;;;;;5035244;28;20435;-65
2022/04/03 01:26:50;;;;;;;5.60;5.10;;;0.40;99.90;;;;;;5035163;28;20637;-62
2022/04/03 01:29:16;;;;;;;5.57;4.97;;;0.50;99.90;;;;;;5034446;28;20191;-62
2022/04/03 01:31:42;;;;;;;5.65;5.22;;;0.50;99.90;;;;;;5034831;28;20191;-67
2022/04/03 01:34:08;;;;;;;5.50;5.05;;;0.50;99.90;;;;;;5035125;28;20183;-66
2022/04/03 01:36:34;;;;;;;5.30;4.90;;;0.50;99.90;;;;;;5035039;28;20206;-62
2022/04/03 01:39:00;;;;;;;14.43;5.27;;;0.50;99.90;;;;;;5033241;28;20182;-66
2022/04/03 01:41:26;;;;;;;7.00;5.20;;;0.50;99.90;;;;;;5033412;28;20474;-66
2022/04/03 01:43:51;;;;;;;5.23;4.73;;;0.40;99.90;;;;;;5033311;28;20630;-62
2022/04/03 01:46:17;;;;;;;6.00;5.40;;;0.40;99.90;;;;;;5034899;28;20172;-66
2022/04/03 01:48:42;;;;;;;7.10;6.03;;;0.40;99.90;;;;;;5034053;28;20167;-62
2022/04/03 01:51:08;;;;;;;4.63;4.23;;;0.40;99.90;;;;;;5034690;28;20175;-65
2022/04/03 01:53:34;;;;;;;7.63;5.57;;;0.40;99.90;;;;;;5034641;28;20175;-65
2022/04/03 01:56:01;;;;;;;5.30;4.90;;;0.40;99.90;;;;;;5034291;28;20189;-63
2022/04/03 01:58:27;;;;;;;11.48;6.32;;;0.30;99.90;;;;;;5034393;28;20254;-62
2022/04/03 02:00:52;;;;;;;6.67;5.97;;;0.30;99.90;;;;;;5034246;28;20191;-65
2022/04/03 02:03:18;;;;;;;6.13;5.10;;;0.30;99.90;;;;;;5034536;28;20270;-62
2022/04/03 02:05:44;;;;;;;6.00;5.50;;;0.20;99.90;;;;;;5034345;28;20282;-64
2022/04/03 02:08:09;;;;;;;8.57;6.40;;;0.30;99.90;;;;;;5033166;28;20175;-62
2022/04/03 02:10:35;;;;;;;7.37;5.07;;;0.10;99.90;;;;;;5033695;28;20170;-65
2022/04/03 02:13:00;;;;;;;6.57;6.03;;;0.10;99.90;;;;;;5034437;28;20192;-65
2022/04/03 02:15:26;;;;;;;6.67;6.10;;;0.10;99.90;;;;;;5034352;28;20169;-62
2022/04/03 02:17:52;;;;;;;7.53;5.43;;;0.20;99.90;;;;;;5034225;28;20199;-63
2022/04/03 02:20:17;;;;;;;7.50;5.70;;;0.20;99.90;;;;;;5033407;28;20767;-66
2022/04/03 02:22:43;;;;;;;7.93;5.37;;;0.30;99.90;;;;;;5033997;28;20270;-62
2022/04/03 02:25:11;;;;;;;6.50;5.70;;;0.30;99.90;;;;;;5034002;28;20193;-63
2022/04/03 02:27:38;;;;;;;6.83;5.20;;;0.30;99.90;;;;;;5034091;28;20621;-65
2022/04/03 02:30:11;;;;;;;8.75;6.45;;;0.30;99.90;;;;;;5033237;28;20387;-63
2022/04/03 02:32:37;;;;;;;7.05;5.90;;;0.20;99.90;;;;;;5034032;28;20199;-62
2022/04/03 02:35:06;;;;;;;6.00;5.50;;;0.10;99.90;;;;;;5033994;28;20164;-66
2022/04/03 02:37:33;;;;;;;6.78;5.47;;;0.00;99.90;;;;;;5033856;28;20176;-66
2022/04/03 02:39:59;;;;;;;7.68;5.45;;;0.00;99.90;;;;;;5033064;28;20175;-66
2022/04/03 02:42:24;;;;;;;7.37;6.70;;;0.00;99.90;;;;;;5033588;28;20759;-66
2022/04/03 02:44:51;;;;;;;8.63;6.40;;;0.00;99.90;;;;;;5033713;28;20457;-65
2022/04/03 02:47:17;;;;;;;7.57;5.97;;;0.00;99.90;;;;;;5033663;28;20160;-65
2022/04/03 02:49:43;;;;;;;6.57;6.13;;;0.00;99.90;;;;;;5032999;28;20172;-62
2022/04/03 02:52:09;;;;;;;6.67;6.03;;;0.00;99.90;;;;;;5032203;28;20448;-65
2022/04/03 02:54:34;;;;;;;8.10;7.30;;;0.00;99.90;;;;;;5032156;28;20938;-65
2022/04/03 02:57:00;;;;;;;7.20;6.50;;;0.00;99.90;;;;;;5033693;28;20674;-65
2022/04/03 02:59:26;;;;;;;7.00;6.10;;;0.10;99.90;;;;;;5032392;28;20468;-62
2022/04/03 03:01:52;;;;;;;11.10;6.70;;;0.10;99.90;;;;;;5033659;28;20564;-65
2022/04/03 03:04:17;;;;;;;10.00;6.80;;;0.10;99.90;;;;;;5033467;28;20218;-65
2022/04/03 03:06:43;;;;;;;7.80;6.53;;;0.10;99.90;;;;;;5033357;28;20186;-62
2022/04/03 03:09:09;;;;;;;6.80;6.20;;;0.00;99.90;;;;;;5032798;28;20175;-65
2022/04/03 03:11:34;;;;;;;11.23;7.97;;;0.10;99.90;;;;;;5033387;28;20661;-65
2022/04/03 03:14:00;;;;;;;6.03;5.53;;;0.10;99.90;;;;;;5032172;28;20635;-65
2022/04/03 03:16:25;;;;;;;5.37;4.87;;;0.10;99.90;;;;;;5033243;28;20167;-63
2022/04/03 03:18:51;;;;;;;6.07;5.57;;;0.00;99.90;;;;;;5032750;28;20168;-66
2022/04/03 03:21:17;;;;;;;5.53;5.20;;;0.00;99.90;;;;;;5033240;28;20533;-66
2022/04/03 03:23:42;;;;;;;6.80;6.13;;;0.00;99.90;;;;;;5033279;28;20195;-66
2022/04/03 03:26:08;;;;;;;5.23;4.83;;;0.00;99.90;;;;;;5033220;28;20278;-65
2022/04/03 03:28:34;;;;;;;5.68;5.07;;;0.00;99.90;;;;;;5032563;28;20217;-67
2022/04/03 03:31:00;;;;;;;6.77;6.07;;;-0.10;99.90;;;;;;5033215;28;20175;-66
2022/04/03 03:33:26;;;;;;;6.20;5.60;;;-0.10;99.90;;;;;;5033324;28;20409;-62
2022/04/03 03:35:51;;;;;;;6.80;5.90;;;-0.10;99.90;;;;;;5033159;28;20171;-62
2022/04/03 03:38:18;;;;;;;6.63;6.00;;;-0.10;99.90;;;;;;5033162;28;20599;-63
2022/04/03 03:40:44;;;;;;;6.10;5.43;;;-0.10;99.90;;;;;;5032305;28;20518;-63
2022/04/03 03:43:11;;;;;;;6.03;5.40;;;-0.10;99.90;;;;;;5033119;28;20214;-65
2022/04/03 03:45:37;;;;;;;9.60;6.25;;;-0.20;99.90;;;;;;5033238;28;20283;-65
2022/04/03 03:48:02;;;;;;;5.90;5.47;;;-0.20;99.90;;;;;;5033104;28;20242;-65
2022/04/03 03:50:28;;;;;;;8.90;5.57;;;-0.20;99.90;;;;;;5032382;28;20641;-65
2022/04/03 03:52:54;;;;;;;7.87;7.20;;;-0.20;99.90;;;;;;5033191;28;20418;-65
2022/04/03 03:55:19;;;;;;;6.20;5.70;;;-0.20;99.90;;;;;;5032969;28;20175;-62
2022/04/03 03:57:46;;;;;;;6.23;5.63;;;-0.20;99.90;;;;;;5033081;28;20173;-65
2022/04/03 04:00:12;;;;;;;6.15;5.28;;;-0.20;99.90;;;;;;5032411;28;20175;-62
2022/04/03 04:02:38;;;;;;;5.38;4.85;;;-0.20;99.90;;;;;;5032812;28;20188;-66
2022/04/03 04:05:05;;;;;;;5.70;5.10;;;-0.20;99.90;;;;;;5032890;28;20719;-65
2022/04/03 04:07:39;;;;;;;5.30;4.82;;;-0.20;99.90;;;;;;5032821;28;20198;-66
2022/04/03 04:10:05;;;;;;;8.85;5.88;;;-0.20;99.90;;;;;;5032470;28;20226;-65
2022/04/03 04:12:31;;;;;;;5.65;5.03;;;-0.20;99.90;;;;;;5036465;28;20191;-62
2022/04/03 04:14:57;;;;;;;5.18;4.68;;;-0.20;99.90;;;;;;5036503;28;20254;-67
2022/04/03 04:17:23;;;;;;;6.27;5.70;;;-0.20;99.90;;;;;;5036568;28;20696;-62
2022/04/03 04:19:49;;;;;;;6.22;4.53;;;-0.10;99.90;;;;;;5035853;28;20632;-65
2022/04/03 04:22:16;;;;;;;11.07;5.10;;;-0.20;99.90;;;;;;5036442;28;20200;-62
2022/04/03 04:24:42;;;;;;;5.45;5.05;;;-0.10;99.90;;;;;;5036361;28;20807;-65
2022/04/03 04:27:08;;;;;;;5.83;5.33;;;-0.10;99.90;;;;;;5034971;28;20172;-65
2022/04/03 04:29:34;;;;;;;5.93;5.13;;;-0.10;99.90;;;;;;5035631;28;20437;-65
2022/04/03 04:32:00;;;;;;;8.43;5.13;;;-0.10;99.90;;;;;;5036174;28;20429;-62
2022/04/03 04:34:25;;;;;;;6.07;5.57;;;-0.20;99.90;;;;;;5036139;28;20508;-63
2022/04/03 04:36:51;;;;;;;5.40;4.97;;;-0.20;99.90;;;;;;5036133;28;20179;-65
2022/04/03 04:39:17;;;;;;;6.00;5.23;;;-0.10;99.90;;;;;;5035322;28;20640;-62
2022/04/03 04:41:42;;;;;;;5.10;4.70;;;-0.10;99.90;;;;;;5034958;28;20266;-62
2022/04/03 04:44:08;;;;;;;8.47;5.03;;;0.00;99.90;;;;;;5035980;28;20286;-62
2022/04/03 04:46:34;;;;;;;4.57;4.10;;;0.00;99.90;;;;;;5035959;28;20251;-62
2022/04/03 04:49:00;;;;;;;5.20;4.73;;;0.00;99.90;;;;;;5035115;28;20199;-62
2022/04/03 04:51:26;;;;;;;5.28;4.32;;;0.10;99.90;;;;;;5035588;28;20187;-62
2022/04/03 04:53:51;;;;;;;4.97;4.57;;;0.10;99.90;;;;;;5035890;28;20233;-65
2022/04/03 04:56:17;;;;;;;5.43;4.93;;;0.20;99.90;;;;;;5035713;28;20166;-62
2022/04/03 04:58:42;;;;;;;5.60;5.00;;;0.30;99.90;;;;;;5035054;28;20206;-66
2022/04/03 05:01:08;;;;;;;5.43;4.93;;;0.40;99.90;;;;;;5034686;28;20179;-66
2022/04/03 05:03:34;;;;;;;4.70;4.27;;;0.40;99.90;;;;;;5035483;28;20167;-63
2022/04/03 05:06:00;;;;;;;5.03;4.63;;;0.40;99.90;;;;;;5035691;28;20210;-65
2022/04/03 05:08:26;;;;;;;6.13;5.35;;;0.40;99.90;;;;;;5035511;28;20401;-63
2022/04/03 05:10:53;;;;;;;5.23;4.93;;;0.50;99.90;;;;;;5034881;28;20571;-62
2022/04/03 05:13:19;;;;;;;4.97;4.50;;;0.50;99.90;;;;;;5035430;28;20522;-66
2022/04/03 05:15:45;;;;;;;5.30;4.80;;;0.60;99.90;;;;;;5035473;28;20814;-66
2022/04/03 05:18:11;;;;;;;7.00;4.27;;;0.60;99.90;;;;;;5035346;28;20464;-63
2022/04/03 05:20:37;;;;;;;7.20;4.90;;;0.60;99.90;;;;;;5033413;28;20536;-62
2022/04/03 05:23:03;;;;;;;4.73;4.33;;;0.70;99.90;;;;;;5033551;28;20426;-65
2022/04/03 05:25:29;;;;;;;4.33;4.03;;;0.70;99.90;;;;;;5035089;28;20191;-66
2022/04/03 05:27:56;;;;;;;4.17;3.87;;;0.70;99.90;;;;;;5035152;28;20405;-63
2022/04/03 05:30:21;;;;;;;3.97;3.10;;;0.70;99.90;;;;;;5034491;28;20249;-62
2022/04/03 05:32:47;;;;;;;3.80;3.50;;;0.80;99.90;;;;;;5034990;28;20215;-64
2022/04/03 05:35:13;;;;;;;4.90;4.20;;;0.90;99.90;;;;;;5035047;28;20395;-63
2022/04/03 05:37:39;;;;;;;5.77;5.00;;;0.90;99.90;;;;;;5033639;28;20182;-66
2022/04/03 05:40:07;;;;;;;4.25;3.97;;;0.90;99.90;;;;;;5034202;28;20410;-63
2022/04/03 05:42:34;;;;;;;4.60;4.20;;;1.00;99.90;;;;;;5034820;28;20604;-66
2022/04/03 05:45:00;;;;;;;4.32;3.58;;;1.00;99.90;;;;;;5034068;28;21033;-66
2022/04/03 05:47:25;;;;;;;5.23;4.83;;;1.00;99.90;;;;;;5034650;28;20251;-63
2022/04/03 05:49:51;;;;;;;5.77;4.97;;;1.00;99.90;;;;;;5032936;28;20179;-65
2022/04/03 05:52:16;;;;;;;4.73;4.03;;;1.00;99.90;;;;;;5033310;28;20282;-62
2022/04/03 05:54:42;;;;;;;4.73;4.43;;;1.00;99.90;;;;;;5034848;28;20182;-65
2022/04/03 05:57:10;;;;;;;12.73;4.30;;;1.10;99.90;;;;;;5033256;28;20182;-62
2022/04/03 05:59:35;;;;;;;4.47;4.07;;;0.90;99.90;;;;;;5033820;28;20206;-64
2022/04/03 06:02:01;;;;;;;5.27;4.77;;;0.80;99.90;;;;;;5034298;28;20457;-62
2022/04/03 06:04:27;;;;;;;4.00;3.70;;;0.80;99.90;;;;;;5034649;28;20199;-65
2022/04/03 06:06:52;;;;;;;5.50;5.00;;;0.80;99.90;;;;;;5034451;28;20660;-66
2022/04/03 06:09:18;;;;;;;4.70;4.40;;;0.90;99.90;;;;;;5033743;28;20250;-65
2022/04/03 06:11:43;;;;;;;4.20;3.87;;;1.00;99.90;;;;;;5034331;28;20253;-65
2022/04/03 06:14:10;;;;;;;6.00;3.97;;;1.10;99.90;;;;;;5034339;28;20195;-63
2022/04/03 06:16:36;;;;;;;5.40;4.57;;;1.20;99.90;;;;;;5034346;28;20468;-65
2022/04/03 06:19:02;;;;;;;5.07;4.67;;;1.20;99.90;;;;;;5033761;28;20791;-66
2022/04/03 06:21:27;;;;;;;4.40;4.00;;;1.30;99.90;;;;;;5034124;28;20238;-62
2022/04/03 06:23:53;;;;;;;5.00;4.70;;;1.20;99.90;;;;;;5033985;28;20175;-65
2022/04/03 06:26:18;;;;;;;4.70;4.07;;;1.30;99.90;;;;;;5032800;28;20187;-66
2022/04/03 06:28:44;;;;;;;4.63;4.13;;;1.40;99.90;;;;;;5033517;28;20258;-62
2022/04/03 06:31:10;;;;;;;4.30;3.57;;;1.40;99.90;;;;;;5033896;28;20533;-65
2022/04/03 06:33:36;;;;;;;4.30;3.30;;;1.60;99.90;;;;;;5032457;28;20410;-62
2022/04/03 06:36:03;;;;;;;4.03;3.70;;;1.50;99.90;;;;;;5033501;28;20172;-63
2022/04/03 06:38:28;;;;;;;3.87;3.30;;;1.50;99.90;;;;;;5033450;28;20406;-69
2022/04/03 06:40:57;;;;;;;4.30;4.00;;;1.60;99.90;;;;;;5033896;28;20409;-62
2022/04/03 06:43:25;;;;;;;3.50;3.27;;;1.70;99.90;;;;;;5033729;28;20505;-62
2022/04/03 06:45:52;;;;;;;3.53;3.23;;;1.70;99.90;;;;;;5033745;28;20454;-65
2022/04/03 06:48:18;;;;;;;2.93;2.83;;;1.70;99.90;;;;;;5033614;28;20437;-65
2022/04/03 06:50:44;;;;;;;4.30;3.83;;;1.80;99.90;;;;;;5032969;28;20395;-65
2022/04/03 06:53:10;;;;;;;4.63;3.30;;;1.80;99.90;;;;;;5033592;28;20426;-65
2022/04/03 06:55:36;;;;;;;4.33;4.00;;;1.90;99.90;;;;;;5033744;28;20539;-62
2022/04/03 06:58:02;;;;;;;3.83;3.53;;;2.00;99.90;;;;;;5033519;28;20676;-66
2022/04/03 07:00:29;;;;;;;3.80;3.43;;;2.30;99.90;;;;;;5032782;28;20406;-66
2022/04/03 07:02:55;;;;;;;4.37;4.07;;;2.40;99.90;;;;;;5033594;28;20450;-65
2022/04/03 07:05:20;;;;;;;3.37;3.17;;;2.60;99.90;;;;;;5032222;28;20847;-62
2022/04/03 07:07:46;;;;;;;3.30;3.07;;;2.70;99.90;;;;;;5033414;28;20430;-62
2022/04/03 07:10:13;;;;;;;3.50;3.10;;;2.60;99.90;;;;;;5032913;28;20171;-66
2022/04/03 07:12:38;;;;;;;3.40;3.10;;;2.80;99.90;;;;;;5033380;28;20187;-63
2022/04/03 07:15:05;;;;;;;3.73;3.43;;;2.90;99.90;;;;;;5033451;28;20429;-65
2022/04/03 07:17:31;;;;;;;3.33;3.13;;;3.00;99.90;;;;;;5033403;28;20206;-62
2022/04/03 07:19:56;;;;;;;4.97;4.13;;;3.00;99.90;;;;;;5032849;28;20817;-62
2022/04/03 07:22:22;;;;;;;7.40;3.10;;;3.00;99.90;;;;;;5033263;28;20188;-66
2022/04/03 07:24:48;;;;;;;3.23;3.00;;;3.10;99.90;;;;;;5032984;28;20198;-66
2022/04/03 07:27:13;;;;;;;3.07;2.87;;;3.20;99.90;;;;;;5033333;28;20421;-66
2022/04/03 07:29:39;;;;;;;3.60;3.30;;;3.30;99.90;;;;;;5032690;28;20159;-65
2022/04/03 07:32:05;;;;;;;4.27;3.83;;;3.40;99.90;;;;;;5033236;28;20270;-65
2022/04/03 07:34:31;;;;;;;5.17;3.00;;;3.40;99.90;;;;;;5033157;28;20926;-66
2022/04/03 07:36:57;;;;;;;4.33;2.90;;;3.50;99.90;;;;;;5033181;28;20398;-65
2022/04/03 07:39:26;;;;;;;6.00;3.40;;;3.70;99.90;;;;;;5032602;28;20164;-63
2022/04/03 07:41:51;;;;;;;2.97;2.80;;;3.70;99.90;;;;;;5032990;28;20422;-63
2022/04/03 07:44:17;;;;;;;3.27;3.17;;;3.70;99.90;;;;;;5031984;28;20504;-66
2022/04/03 07:46:43;;;;;;;3.07;2.87;;;3.70;99.90;;;;;;5035735;28;20168;-63
2022/04/03 07:49:10;;;;;;;5.77;3.10;;;3.90;99.90;;;;;;5036517;28;20178;-63
2022/04/03 07:51:36;;;;;;;4.70;3.20;;;4.00;99.90;;;;;;5036924;28;20183;-66
2022/04/03 07:54:03;;;;;;;3.13;2.87;;;4.20;99.90;;;;;;5036978;28;20426;-62
2022/04/03 07:56:30;;;;;;;3.50;3.20;;;4.30;99.90;;;;;;5035537;28;20767;-66
2022/04/03 07:58:56;;;;;;;3.67;2.80;;;4.40;99.90;;;;;;5036142;28;20449;-63
2022/04/03 08:01:22;;;;;;;3.60;3.30;;;4.50;99.90;;;;;;5037131;28;20435;-65
2022/04/03 08:03:47;;;;;;;4.23;3.40;;;4.60;99.90;;;;;;5035823;28;20404;-66
2022/04/03 08:06:13;;;;;;;2.73;2.53;;;4.70;99.90;;;;;;5036614;28;20210;-62
2022/04/03 08:08:39;;;;;;;3.17;2.97;;;4.80;99.90;;;;;;5036029;28;20250;-63
2022/04/03 08:11:05;;;;;;;2.47;2.30;;;4.80;99.90;;;;;;5036631;28;20174;-63
2022/04/03 08:13:31;;;;;;;15.07;3.53;;;4.90;99.90;;;;;;5036755;28;20158;-63
2022/04/03 08:15:56;;;;;;;6.67;2.90;;;5.00;99.90;;;;;;5036706;28;20419;-62
2022/04/03 08:18:23;;;;;;;2.83;2.63;;;5.10;99.90;;;;;;5036507;28;20399;-67
2022/04/03 08:20:51;;;;;;;9.03;3.63;;;5.30;99.90;;;;;;5035956;28;20969;-66
2022/04/03 08:23:16;;;;;;;6.43;2.67;;;5.40;99.90;;;;;;5036418;28;20438;-66
2022/04/03 08:25:45;;;;;;;3.10;2.90;;;5.50;99.90;;;;;;5036347;28;20582;-63
2022/04/03 08:28:10;;;;;;;4.43;3.10;;;5.70;99.90;;;;;;5036301;28;20164;-62
2022/04/03 08:30:37;;;;;;;3.13;2.83;;;5.80;99.90;;;;;;5035718;28;20453;-65
2022/04/03 08:33:05;;;;;;;3.97;2.70;;;5.90;99.90;;;;;;5036063;28;20186;-67
2022/04/03 08:35:32;;;;;;;7.53;3.00;;;6.00;99.90;;;;;;5036301;28;20827;-66
2022/04/03 08:37:59;;;;;;;5.20;3.30;;;6.20;99.90;;;;;;5036254;28;20397;-66
2022/04/03 08:40:26;;;;;;;2.27;1.63;;;6.40;99.90;;;;;;5035344;28;20403;-65
2022/04/03 08:42:55;;;;;;;6.77;3.27;;;6.60;99.90;;;;;;5035935;28;20449;-66
2022/04/03 08:45:22;;;;;;;3.20;2.90;;;6.50;99.90;;;;;;5035796;28;20454;-63
2022/04/03 08:47:53;;;;;;;4.20;3.77;;;6.50;99.90;;;;;;5036175;28;20401;-62
2022/04/03 08:50:25;;;;;;;2.20;2.00;;;6.60;99.90;;;;;;5035289;28;20961;-62
2022/04/03 08:52:53;;;;;;;5.00;2.53;;;6.80;99.90;;;;;;5035702;28;20453;-64
2022/04/03 08:55:20;;;;;;;2.00;1.90;;;7.10;99.90;;;;;;5035676;28;20399;-66
2022/04/03 08:57:47;;;;;;;2.50;2.30;;;7.30;99.90;;;;;;5035076;28;20744;-66
2022/04/03 09:00:13;;;;;;;5.90;2.40;;;7.20;99.90;;;;;;5035088;28;20402;-66
2022/04/03 09:02:40;;;;;;;4.40;2.23;;;7.20;99.90;;;;;;5035537;28;20437;-66
2022/04/03 09:05:06;;;;;;;6.17;2.33;;;7.40;99.90;;;;;;5035526;28;20450;-65
2022/04/03 09:07:32;;;;;;;5.70;2.47;;;7.50;99.90;;;;;;5035350;28;20472;-63
2022/04/03 09:10:05;;;;;;;2.50;2.30;;;7.80;99.90;;;;;;5035023;28;20437;-66
2022/04/03 09:12:31;;;;;;;8.87;2.93;;;7.90;99.90;;;;;;5035596;28;20219;-66
2022/04/03 09:14:58;;;;;;;4.97;3.03;;;8.00;99.90;;;;;;5035687;28;20395;-63
2022/04/03 09:17:38;;;;;;;3.50;2.03;;;8.00;99.90;;;;;;5035441;28;20914;-63
2022/04/03 09:20:09;;;;;;;10.27;3.73;;;7.70;99.90;;;;;;5034676;28;20392;-66
2022/04/03 09:22:36;;;;;;;2.50;2.00;;;7.60;99.90;;;;;;5035402;28;20418;-63
2022/04/03 09:25:19;;;;;;;12.97;7.67;;;7.60;99.90;;;;;;5035296;28;20438;-66
2022/04/03 09:27:56;;;;;;;6.93;3.73;;;7.80;99.90;;;;;;5035211;28;20405;-63
2022/04/03 09:30:36;;;;;;;2.63;2.40;;;7.70;99.90;;;;;;5034512;28;20398;-65
2022/04/03 09:33:05;;;;;;;15.33;6.50;;;7.40;99.90;;;;;;5035036;28;20405;-63
2022/04/03 09:35:57;;;;;;;4.30;2.43;;;7.50;99.90;;;;;;5034979;28;20413;-65
2022/04/03 09:38:25;;;;;;;15.17;11.67;;;7.90;99.90;;;;;;5034966;28;20417;-67
2022/04/03 09:40:52;;;;;;;2.90;2.70;;;8.20;99.90;;;;;;5033359;28;20775;-65
2022/04/03 09:43:31;;;;;;;10.80;6.27;;;8.40;99.90;;;;;;5034818;28;20472;-63
2022/04/03 09:46:01;;;;;;;4.17;3.10;;;8.20;99.90;;;;;;5034809;28;20463;-63
2022/04/03 09:48:32;;;;;;;6.93;3.47;;;8.10;99.90;;;;;;5034977;28;20880;-67
2022/04/03 09:50:59;;;;;;;2.53;2.23;;;8.10;99.90;;;;;;5034818;28;20407;-63
2022/04/03 09:53:24;;;;;;;10.87;5.30;;;7.90;99.90;;;;;;5034632;28;20426;-67
2022/04/03 09:55:50;;;;;;;8.50;2.90;;;7.80;99.90;;;;;;5034610;28;20411;-66
2022/04/03 09:58:16;;;;;;;1.90;1.80;;;7.80;99.90;;;;;;5034888;28;20410;-63
2022/04/03 10:00:42;;;;;;;3.43;2.80;;;7.70;99.90;;;;;;5033908;28;20172;-66
2022/04/03 10:03:10;;;;;;;3.90;1.70;;;8.30;99.90;;;;;;5034471;28;20431;-63
2022/04/03 10:05:36;;;;;;;1.40;1.30;;;9.20;99.90;;;;;;5034175;28;20974;-64
2022/04/03 10:08:04;;;;;;;13.23;5.90;;;10.10;99.90;;;;;;5034218;28;20949;-63
2022/04/03 10:10:33;;;;;;;18.00;2.70;;;11.00;99.90;;;;;;5033823;28;20466;-66
2022/04/03 10:12:59;;;;;;;4.30;3.00;;;11.80;99.90;;;;;;5034400;28;20410;-63
2022/04/03 10:15:26;;;;;;;2.40;2.20;;;12.60;99.90;;;;;;5034560;28;20464;-66
2022/04/03 10:17:53;;;;;;;2.50;2.10;;;12.90;99.90;;;;;;5034281;28;20403;-66
2022/04/03 10:20:19;;;;;;;2.23;1.80;;;12.30;99.90;;;;;;5033430;28;20408;-66
2022/04/03 10:22:56;;;;;;;4.37;2.30;;;11.60;99.90;;;;;;5034182;28;20436;-63
2022/04/03 10:25:28;;;;;;;1.80;1.70;;;10.80;99.90;;;;;;5034194;28;20231;-63
2022/04/03 10:27:57;;;;;;;7.17;2.30;;;10.00;99.90;;;;;;5034050;28;20423;-63
2022/04/03 10:30:37;;;;;;;3.43;3.03;;;9.50;99.90;;;;;;5033368;28;20394;-66
2022/04/03 10:33:04;;;;;;;2.90;2.70;;;9.10;99.90;;;;;;5034103;28;20397;-66
2022/04/03 10:35:30;;;;;;;5.53;3.83;;;8.90;99.90;;;;;;5033935;28;20916;-63
2022/04/03 10:38:01;;;;;;;2.53;1.47;;;8.80;99.90;;;;;;5033427;28;20464;-63
2022/04/03 10:40:30;;;;;;;11.27;2.47;;;9.00;99.90;;;;;;5033790;28;20370;-65
2022/04/03 10:43:01;;;;;;;4.13;1.77;;;9.20;99.90;;;;;;5033863;28;20782;-66
2022/04/03 10:45:37;;;;;;;5.00;2.17;;;9.30;99.90;;;;;;5033733;28;20473;-66
2022/04/03 10:48:20;;;;;;;2.30;2.10;;;9.30;99.90;;;;;;5033709;28;20401;-67
2022/04/03 10:51:00;;;;;;;2.10;1.90;;;9.20;99.90;;;;;;5033232;28;20915;-66
2022/04/03 10:53:31;;;;;;;1.40;1.30;;;8.30;99.90;;;;;;5033552;28;20426;-64
2022/04/03 10:55:59;;;;;;;3.00;1.67;;;7.50;99.90;;;;;;5033629;28;20483;-66
2022/04/03 10:58:48;;;;;;;3.67;2.37;;;6.80;99.90;;;;;;5033411;28;20395;-66
2022/04/03 11:01:28;;;;;;;2.90;2.70;;;6.30;99.90;;;;;;5033446;28;20402;-66
2022/04/03 11:04:07;;;;;;;6.10;3.70;;;5.90;99.90;;;;;;5033433;28;20418;-66
2022/04/03 11:06:35;;;;;;;3.90;3.60;;;5.60;99.90;;;;;;5033373;28;20491;-63
2022/04/03 11:09:11;;;;;;;2.63;2.43;;;5.50;99.90;;;;;;5032958;28;20405;-63
2022/04/03 11:11:54;;;;;;;2.13;2.00;;;5.40;99.90;;;;;;5032114;28;20792;-63
2022/04/03 11:14:47;;;;;;;2.40;2.30;;;5.40;99.90;;;;;;5033378;28;20403;-63
2022/04/03 11:17:13;;;;;;;2.70;2.50;;;5.70;99.90;;;;;;5032073;28;20410;-65
2022/04/03 11:19:44;;;;;;;6.63;5.97;;;5.80;99.90;;;;;;5032593;28;20409;-63
2022/04/03 11:22:14;;;;;;;8.90;7.67;;;6.10;99.90;;;;;;5033052;28;20245;-64
2022/04/03 11:24:40;;;;;;;7.07;6.53;;;6.30;99.90;;;;;;5033310;28;20815;-66
2022/04/03 11:27:07;;;;;;;6.40;3.13;;;6.60;99.90;;;;;;5033351;28;20406;-66
2022/04/03 11:29:34;;;;;;;2.70;2.50;;;7.00;99.90;;;;;;5032644;28;20190;-66
2022/04/03 11:32:03;;;;;;;1.83;1.73;;;7.20;99.90;;;;;;5033288;28;20411;-66
2022/04/03 11:34:33;;;;;;;1.67;1.57;;;8.00;99.90;;;;;;5033194;28;20417;-65
2022/04/03 11:37:00;;;;;;;1.90;1.67;;;9.60;99.90;;;;;;5033283;28;20783;-63
2022/04/03 11:39:40;;;;;;;1.50;1.40;;;11.10;99.90;;;;;;5032894;28;20413;-63
2022/04/03 11:42:08;;;;;;;6.67;1.80;;;11.90;99.90;;;;;;5033211;28;20779;-63
2022/04/03 11:44:36;;;;;;;1.67;1.53;;;12.50;99.90;;;;;;5033022;28;20429;-63
2022/04/03 11:47:03;;;;;;;1.80;1.70;;;12.60;99.90;;;;;;5033219;28;20376;-63
2022/04/03 11:49:30;;;;;;;2.03;1.70;;;13.00;99.90;;;;;;5032510;28;20377;-63
2022/04/03 11:52:09;;;;;;;2.53;1.53;;;13.00;99.90;;;;;;5032955;28;20389;-63
2022/04/03 11:54:37;;;;;;;1.77;1.67;;;12.90;99.90;;;;;;5032971;28;20722;-66
2022/04/03 11:57:05;;;;;;;3.00;1.97;;;12.60;99.90;;;;;;5032969;28;20871;-63
2022/04/03 11:59:38;;;;;;;5.10;1.73;;;12.40;99.90;;;;;;5032451;28;20407;-63
2022/04/03 12:02:15;;;;;;;2.87;1.43;;;12.20;99.90;;;;;;5032919;28;20433;-63
2022/04/03 12:04:43;;;;;;;2.33;1.70;;;12.10;99.90;;;;;;5032736;28;20453;-67
2022/04/03 12:07:13;;;;;;;1.50;1.40;;;12.10;99.90;;;;;;5032953;28;20405;-63
2022/04/03 12:09:41;;;;;;;2.67;1.57;;;11.80;99.90;;;;;;5032263;28;20373;-67
2022/04/03 12:12:07;;;;;;;6.63;1.47;;;11.70;99.90;;;;;;5032823;28;20408;-63
2022/04/03 12:14:35;;;;;;;3.37;1.90;;;11.70;99.90;;;;;;5032772;28;20385;-67
2022/04/03 12:17:03;;;;;;;2.67;1.60;;;11.60;99.90;;;;;;5032702;28;20725;-67
2022/04/03 12:19:33;;;;;;;1.73;1.50;;;11.40;99.90;;;;;;5031005;28;20808;-66
2022/04/03 12:22:02;;;;;;;1.40;1.30;;;11.00;99.90;;;;;;5032790;28;20393;-63
2022/04/03 12:24:29;;;;;;;1.20;1.10;;;11.50;99.90;;;;;;5032817;28;20782;-64
2022/04/03 12:27:18;;;;;;;3.83;1.33;;;12.60;99.90;;;;;;5032883;28;20734;-64
2022/04/03 12:29:49;;;;;;;1.50;1.40;;;12.80;99.90;;;;;;5030862;28;20410;-66
2022/04/03 12:32:17;;;;;;;1.60;1.50;;;12.10;99.90;;;;;;5033162;28;20446;-63
2022/04/03 12:34:47;;;;;;;1.80;1.70;;;11.40;99.90;;;;;;5036262;28;20898;-67
2022/04/03 12:37:14;;;;;;;1.60;1.50;;;10.70;99.90;;;;;;5036227;28;20385;-67
2022/04/03 12:39:52;;;;;;;1.87;1.50;;;9.90;99.90;;;;;;5035493;28;20413;-63
2022/04/03 12:42:25;;;;;;;1.70;1.57;;;9.70;99.90;;;;;;5036136;28;20422;-63
2022/04/03 12:45:10;;;;;;;3.63;1.70;;;9.80;99.90;;;;;;5035974;28;20450;-66
2022/04/03 12:47:41;;;;;;;2.13;2.03;;;10.30;99.90;;;;;;5036124;28;20407;-63
2022/04/03 12:50:06;;;;;;;1.73;1.63;;;11.60;99.90;;;;;;5035298;28;20385;-67
2022/04/03 12:52:47;;;;;;;1.67;1.57;;;11.80;99.90;;;;;;5035798;28;20433;-63
2022/04/03 12:55:25;;;;;;;3.53;2.13;;;11.00;99.90;;;;;;5035714;28;20262;-66
2022/04/03 13:00:46;;;;;;;2.90;1.57;;;9.90;99.90;;;;;;5035033;28;20548;-63